sensor_id;sensor_type;location;lat;lon;timestamp;P1;durP1;ratioP1;P2;durP2;ratioP2
20956;SDS011;10637;47.970;7.830;2023-02-20T00:04:33;11.80;;;4.20;;
20956;SDS011;10637;47.970;7.830;2023-02-20T00:09:34;9.20;;;3.80;;
20956;SDS011;10637;47.970;7.830;2023-02-20T00:14:36;14.00;;;4.00;;
20956;SDS011;10637;47.970;7.830;2023-02-20T00:19:38;12.07;;;4.20;;
20956;SDS011;10637;47.970;7.830;2023-02-20T00:24:40;11.67;;;4.10;;
20956;SDS011;10637;47.970;7.830;2023-02-20T00:29:45;9.30;;;3.77;;
20956;SDS011;10637;47.970;7.830;2023-02-20T00:34:47;9.70;;;3.60;;
20956;SDS011;10637;47.970;7.830;2023-02-20T00:39:49;12.53;;;4.13;;
20956;SDS011;10637;47.970;7.830;2023-02-20T00:44:50;9.77;;;3.70;;
20956;SDS011;10637;47.970;7.830;2023-02-20T00:49:52;9.60;;;3.63;;
20956;SDS011;10637;47.970;7.830;2023-02-20T00:54:54;11.70;;;3.77;;
20956;SDS011;10637;47.970;7.830;2023-02-20T00:59:55;12.90;;;4.00;;
20956;SDS011;10637;47.970;7.830;2023-02-20T01:04:57;12.10;;;3.37;;
20956;SDS011;10637;47.970;7.830;2023-02-20T01:09:59;10.90;;;3.77;;
20956;SDS011;10637;47.970;7.830;2023-02-20T01:15:01;12.40;;;3.50;;
20956;SDS011;10637;47.970;7.830;2023-02-20T01:20:03;10.87;;;3.67;;
20956;SDS011;10637;47.970;7.830;2023-02-20T01:25:05;11.07;;;4.20;;
20956;SDS011;10637;47.970;7.830;2023-02-20T01:30:07;9.03;;;3.90;;
20956;SDS011;10637;47.970;7.830;2023-02-20T01:35:09;9.93;;;3.73;;
20956;SDS011;10637;47.970;7.830;2023-02-20T01:40:16;9.37;;;3.57;;
20956;SDS011;10637;47.970;7.830;2023-02-20T01:45:27;12.17;;;4.67;;
20956;SDS011;10637;47.970;7.830;2023-02-20T01:50:36;9.70;;;4.00;;
20956;SDS011;10637;47.970;7.830;2023-02-20T01:55:53;10.97;;;3.80;;
20956;SDS011;10637;47.970;7.830;2023-02-20T02:00:58;13.40;;;4.30;;
20956;SDS011;10637;47.970;7.830;2023-02-20T02:06:02;9.67;;;4.03;;
20956;SDS011;10637;47.970;7.830;2023-02-20T02:11:08;11.20;;;3.83;;
20956;SDS011;10637;47.970;7.830;2023-02-20T02:32:41;12.00;;;4.63;;
20956;SDS011;10637;47.970;7.830;2023-02-20T02:38:16;12.60;;;4.60;;
20956;SDS011;10637;47.970;7.830;2023-02-20T02:48:44;11.50;;;4.40;;
20956;SDS011;10637;47.970;7.830;2023-02-20T02:54:08;10.27;;;4.10;;
20956;SDS011;10637;47.970;7.830;2023-02-20T02:59:16;12.00;;;4.27;;
20956;SDS011;10637;47.970;7.830;2023-02-20T03:04:22;12.23;;;4.30;;
20956;SDS011;10637;47.970;7.830;2023-02-20T03:09:41;14.27;;;4.30;;
20956;SDS011;10637;47.970;7.830;2023-02-20T03:20:21;10.40;;;4.17;;
20956;SDS011;10637;47.970;7.830;2023-02-20T03:25:27;11.30;;;4.00;;
20956;SDS011;10637;47.970;7.830;2023-02-20T03:30:38;10.90;;;4.20;;
20956;SDS011;10637;47.970;7.830;2023-02-20T03:35:47;11.33;;;3.90;;
20956;SDS011;10637;47.970;7.830;2023-02-20T03:41:11;13.27;;;4.37;;
20956;SDS011;10637;47.970;7.830;2023-02-20T03:46:34;11.57;;;4.40;;
20956;SDS011;10637;47.970;7.830;2023-02-20T03:51:39;10.00;;;3.97;;
20956;SDS011;10637;47.970;7.830;2023-02-20T03:56:42;12.23;;;4.40;;
20956;SDS011;10637;47.970;7.830;2023-02-20T04:01:54;13.17;;;4.03;;
20956;SDS011;10637;47.970;7.830;2023-02-20T04:06:58;10.97;;;4.57;;
20956;SDS011;10637;47.970;7.830;2023-02-20T04:12:04;10.83;;;4.40;;
20956;SDS011;10637;47.970;7.830;2023-02-20T04:17:13;13.53;;;5.07;;
20956;SDS011;10637;47.970;7.830;2023-02-20T04:22:22;10.77;;;4.47;;
20956;SDS011;10637;47.970;7.830;2023-02-20T04:27:27;10.37;;;4.50;;
20956;SDS011;10637;47.970;7.830;2023-02-20T04:32:29;9.67;;;4.60;;
20956;SDS011;10637;47.970;7.830;2023-02-20T04:37:31;11.60;;;4.57;;
20956;SDS011;10637;47.970;7.830;2023-02-20T04:42:33;11.10;;;4.30;;
20956;SDS011;10637;47.970;7.830;2023-02-20T04:47:34;11.83;;;4.80;;
20956;SDS011;10637;47.970;7.830;2023-02-20T04:52:36;11.37;;;4.73;;
20956;SDS011;10637;47.970;7.830;2023-02-20T04:57:38;8.80;;;4.30;;
20956;SDS011;10637;47.970;7.830;2023-02-20T05:02:40;12.07;;;4.30;;
20956;SDS011;10637;47.970;7.830;2023-02-20T05:07:42;12.63;;;4.80;;
20956;SDS011;10637;47.970;7.830;2023-02-20T05:12:43;12.50;;;4.80;;
20956;SDS011;10637;47.970;7.830;2023-02-20T05:17:45;11.67;;;6.37;;
20956;SDS011;10637;47.970;7.830;2023-02-20T05:22:47;15.43;;;4.93;;
20956;SDS011;10637;47.970;7.830;2023-02-20T05:27:49;13.90;;;5.53;;
20956;SDS011;10637;47.970;7.830;2023-02-20T05:32:51;13.47;;;4.50;;
20956;SDS011;10637;47.970;7.830;2023-02-20T05:37:52;13.60;;;5.73;;
20956;SDS011;10637;47.970;7.830;2023-02-20T05:42:54;14.93;;;5.30;;
20956;SDS011;10637;47.970;7.830;2023-02-20T05:47:56;11.93;;;4.53;;
20956;SDS011;10637;47.970;7.830;2023-02-20T05:52:57;10.13;;;4.83;;
20956;SDS011;10637;47.970;7.830;2023-02-20T05:57:59;13.10;;;5.50;;
20956;SDS011;10637;47.970;7.830;2023-02-20T06:03:01;11.30;;;5.23;;
20956;SDS011;10637;47.970;7.830;2023-02-20T06:08:05;10.80;;;5.20;;
20956;SDS011;10637;47.970;7.830;2023-02-20T06:13:07;11.27;;;5.00;;
20956;SDS011;10637;47.970;7.830;2023-02-20T06:18:09;15.50;;;5.57;;
20956;SDS011;10637;47.970;7.830;2023-02-20T06:23:11;11.70;;;5.80;;
20956;SDS011;10637;47.970;7.830;2023-02-20T06:28:13;12.17;;;4.90;;
20956;SDS011;10637;47.970;7.830;2023-02-20T06:33:16;14.80;;;6.13;;
20956;SDS011;10637;47.970;7.830;2023-02-20T06:38:17;12.27;;;5.63;;
20956;SDS011;10637;47.970;7.830;2023-02-20T06:43:19;18.37;;;8.00;;
20956;SDS011;10637;47.970;7.830;2023-02-20T06:48:21;59.47;;;26.50;;
20956;SDS011;10637;47.970;7.830;2023-02-20T06:53:23;20.83;;;8.97;;
20956;SDS011;10637;47.970;7.830;2023-02-20T06:58:24;13.57;;;5.50;;
20956;SDS011;10637;47.970;7.830;2023-02-20T07:03:26;34.50;;;15.17;;
20956;SDS011;10637;47.970;7.830;2023-02-20T07:08:28;35.43;;;15.83;;
20956;SDS011;10637;47.970;7.830;2023-02-20T07:13:29;78.43;;;35.20;;
20956;SDS011;10637;47.970;7.830;2023-02-20T07:18:31;49.27;;;22.53;;
20956;SDS011;10637;47.970;7.830;2023-02-20T07:23:33;26.80;;;13.03;;
20956;SDS011;10637;47.970;7.830;2023-02-20T07:28:35;28.87;;;13.83;;
20956;SDS011;10637;47.970;7.830;2023-02-20T07:33:37;31.83;;;14.40;;
20956;SDS011;10637;47.970;7.830;2023-02-20T07:38:39;27.67;;;13.23;;
20956;SDS011;10637;47.970;7.830;2023-02-20T07:43:41;29.30;;;14.50;;
20956;SDS011;10637;47.970;7.830;2023-02-20T07:48:42;19.43;;;7.77;;
20956;SDS011;10637;47.970;7.830;2023-02-20T07:53:48;13.60;;;6.00;;
20956;SDS011;10637;47.970;7.830;2023-02-20T07:58:51;13.80;;;6.40;;
20956;SDS011;10637;47.970;7.830;2023-02-20T08:03:53;18.33;;;8.23;;
20956;SDS011;10637;47.970;7.830;2023-02-20T08:08:54;35.07;;;15.20;;
20956;SDS011;10637;47.970;7.830;2023-02-20T08:13:56;12.80;;;6.20;;
20956;SDS011;10637;47.970;7.830;2023-02-20T08:18:58;17.03;;;7.80;;
20956;SDS011;10637;47.970;7.830;2023-02-20T08:24:00;17.60;;;7.13;;
20956;SDS011;10637;47.970;7.830;2023-02-20T08:29:02;14.80;;;5.43;;
20956;SDS011;10637;47.970;7.830;2023-02-20T08:34:03;10.83;;;5.13;;
20956;SDS011;10637;47.970;7.830;2023-02-20T08:39:05;11.73;;;5.03;;
20956;SDS011;10637;47.970;7.830;2023-02-20T08:44:07;10.07;;;4.47;;
20956;SDS011;10637;47.970;7.830;2023-02-20T08:49:08;12.93;;;4.20;;
20956;SDS011;10637;47.970;7.830;2023-02-20T08:54:10;10.77;;;4.40;;
20956;SDS011;10637;47.970;7.830;2023-02-20T08:59:12;15.33;;;4.80;;
20956;SDS011;10637;47.970;7.830;2023-02-20T09:04:14;9.57;;;3.90;;
20956;SDS011;10637;47.970;7.830;2023-02-20T09:09:17;11.63;;;3.80;;
20956;SDS011;10637;47.970;7.830;2023-02-20T09:14:19;10.17;;;3.70;;
20956;SDS011;10637;47.970;7.830;2023-02-20T09:19:21;11.93;;;3.60;;
20956;SDS011;10637;47.970;7.830;2023-02-20T09:24:24;9.40;;;3.60;;
20956;SDS011;10637;47.970;7.830;2023-02-20T09:29:28;10.87;;;4.40;;
20956;SDS011;10637;47.970;7.830;2023-02-20T09:34:30;11.87;;;3.87;;
20956;SDS011;10637;47.970;7.830;2023-02-20T09:39:31;10.67;;;3.83;;
20956;SDS011;10637;47.970;7.830;2023-02-20T09:44:37;12.00;;;4.03;;
20956;SDS011;10637;47.970;7.830;2023-02-20T09:49:42;10.33;;;3.70;;
20956;SDS011;10637;47.970;7.830;2023-02-20T09:54:45;12.07;;;3.97;;
20956;SDS011;10637;47.970;7.830;2023-02-20T09:59:52;9.73;;;3.40;;
20956;SDS011;10637;47.970;7.830;2023-02-20T10:05:13;8.67;;;3.20;;
20956;SDS011;10637;47.970;7.830;2023-02-20T10:10:23;7.67;;;3.17;;
20956;SDS011;10637;47.970;7.830;2023-02-20T10:15:43;10.67;;;3.67;;
20956;SDS011;10637;47.970;7.830;2023-02-20T10:21:50;12.97;;;4.30;;
20956;SDS011;10637;47.970;7.830;2023-02-20T10:26:42;12.73;;;4.70;;
20956;SDS011;10637;47.970;7.830;2023-02-20T10:37:13;11.10;;;3.77;;
20956;SDS011;10637;47.970;7.830;2023-02-20T10:47:47;10.27;;;3.87;;
20956;SDS011;10637;47.970;7.830;2023-02-20T10:58:03;10.35;;;3.85;;
20956;SDS011;10637;47.970;7.830;2023-02-20T11:08:34;11.55;;;3.78;;
20956;SDS011;10637;47.970;7.830;2023-02-20T11:13:36;33.90;;;7.35;;
20956;SDS011;10637;47.970;7.830;2023-02-20T11:18:38;9.70;;;3.80;;
20956;SDS011;10637;47.970;7.830;2023-02-20T11:23:41;9.90;;;3.47;;
20956;SDS011;10637;47.970;7.830;2023-02-20T11:28:44;10.13;;;3.78;;
20956;SDS011;10637;47.970;7.830;2023-02-20T11:33:54;12.70;;;4.40;;
20956;SDS011;10637;47.970;7.830;2023-02-20T11:38:58;9.13;;;3.90;;
20956;SDS011;10637;47.970;7.830;2023-02-20T11:49:22;10.13;;;4.00;;
20956;SDS011;10637;47.970;7.830;2023-02-20T11:54:25;10.90;;;4.03;;
20956;SDS011;10637;47.970;7.830;2023-02-20T12:04:35;9.70;;;4.20;;
20956;SDS011;10637;47.970;7.830;2023-02-20T12:09:37;14.40;;;4.60;;
20956;SDS011;10637;47.970;7.830;2023-02-20T12:14:39;9.57;;;3.87;;
20956;SDS011;10637;47.970;7.830;2023-02-20T12:35:59;9.52;;;3.85;;
20956;SDS011;10637;47.970;7.830;2023-02-20T12:52:04;10.65;;;3.65;;
20956;SDS011;10637;47.970;7.830;2023-02-20T12:57:33;10.02;;;3.58;;
20956;SDS011;10637;47.970;7.830;2023-02-20T13:02:45;11.40;;;4.03;;
20956;SDS011;10637;47.970;7.830;2023-02-20T13:07:50;9.57;;;3.60;;
20956;SDS011;10637;47.970;7.830;2023-02-20T13:13:07;10.55;;;4.18;;
20956;SDS011;10637;47.970;7.830;2023-02-20T13:18:22;9.07;;;3.80;;
20956;SDS011;10637;47.970;7.830;2023-02-20T13:23:27;10.80;;;4.25;;
20956;SDS011;10637;47.970;7.830;2023-02-20T13:28:35;9.73;;;3.63;;
20956;SDS011;10637;47.970;7.830;2023-02-20T13:33:49;11.32;;;4.05;;
20956;SDS011;10637;47.970;7.830;2023-02-20T13:54:44;10.82;;;4.35;;
20956;SDS011;10637;47.970;7.830;2023-02-20T13:59:47;11.07;;;4.50;;
20956;SDS011;10637;47.970;7.830;2023-02-20T14:04:52;12.23;;;4.60;;
20956;SDS011;10637;47.970;7.830;2023-02-20T14:09:59;12.37;;;4.40;;
20956;SDS011;10637;47.970;7.830;2023-02-20T14:15:02;10.93;;;4.60;;
20956;SDS011;10637;47.970;7.830;2023-02-20T14:20:10;9.57;;;4.13;;
20956;SDS011;10637;47.970;7.830;2023-02-20T14:25:23;10.50;;;4.53;;
20956;SDS011;10637;47.970;7.830;2023-02-20T14:30:27;10.57;;;4.73;;
20956;SDS011;10637;47.970;7.830;2023-02-20T14:35:41;10.60;;;4.40;;
20956;SDS011;10637;47.970;7.830;2023-02-20T14:41:12;10.07;;;4.50;;
20956;SDS011;10637;47.970;7.830;2023-02-20T14:46:28;10.37;;;4.60;;
20956;SDS011;10637;47.970;7.830;2023-02-20T14:51:32;10.53;;;4.73;;
20956;SDS011;10637;47.970;7.830;2023-02-20T14:56:34;13.23;;;4.60;;
20956;SDS011;10637;47.970;7.830;2023-02-20T15:01:38;10.97;;;4.40;;
20956;SDS011;10637;47.970;7.830;2023-02-20T15:06:42;13.77;;;4.50;;
20956;SDS011;10637;47.970;7.830;2023-02-20T15:11:53;10.37;;;4.50;;
20956;SDS011;10637;47.970;7.830;2023-02-20T15:17:06;12.13;;;4.10;;
20956;SDS011;10637;47.970;7.830;2023-02-20T15:33:06;10.40;;;3.67;;
20956;SDS011;10637;47.970;7.830;2023-02-20T15:38:11;10.20;;;3.47;;
20956;SDS011;10637;47.970;7.830;2023-02-20T15:43:13;9.33;;;3.10;;
20956;SDS011;10637;47.970;7.830;2023-02-20T15:48:35;9.47;;;3.30;;
20956;SDS011;10637;47.970;7.830;2023-02-20T15:53:37;9.57;;;3.50;;
20956;SDS011;10637;47.970;7.830;2023-02-20T15:58:39;9.77;;;3.37;;
20956;SDS011;10637;47.970;7.830;2023-02-20T16:03:43;18.93;;;6.90;;
20956;SDS011;10637;47.970;7.830;2023-02-20T16:08:53;14.67;;;5.07;;
20956;SDS011;10637;47.970;7.830;2023-02-20T16:13:55;19.07;;;7.20;;
20956;SDS011;10637;47.970;7.830;2023-02-20T16:19:00;20.20;;;7.17;;
20956;SDS011;10637;47.970;7.830;2023-02-20T16:24:02;32.00;;;11.47;;
20956;SDS011;10637;47.970;7.830;2023-02-20T16:29:18;21.80;;;8.70;;
20956;SDS011;10637;47.970;7.830;2023-02-20T16:34:23;18.13;;;6.93;;
20956;SDS011;10637;47.970;7.830;2023-02-20T16:39:26;19.03;;;6.57;;
20956;SDS011;10637;47.970;7.830;2023-02-20T16:44:33;22.97;;;8.37;;
20956;SDS011;10637;47.970;7.830;2023-02-20T16:49:37;27.00;;;9.80;;
20956;SDS011;10637;47.970;7.830;2023-02-20T16:54:40;21.47;;;8.67;;
20956;SDS011;10637;47.970;7.830;2023-02-20T16:59:44;19.80;;;8.33;;
20956;SDS011;10637;47.970;7.830;2023-02-20T17:04:46;16.37;;;7.03;;
20956;SDS011;10637;47.970;7.830;2023-02-20T17:09:49;19.03;;;7.20;;
20956;SDS011;10637;47.970;7.830;2023-02-20T17:14:51;11.97;;;6.33;;
20956;SDS011;10637;47.970;7.830;2023-02-20T17:19:53;19.27;;;9.50;;
20956;SDS011;10637;47.970;7.830;2023-02-20T17:24:57;15.97;;;7.27;;
20956;SDS011;10637;47.970;7.830;2023-02-20T17:29:59;15.50;;;7.87;;
20956;SDS011;10637;47.970;7.830;2023-02-20T17:35:02;17.97;;;7.47;;
20956;SDS011;10637;47.970;7.830;2023-02-20T17:40:04;17.40;;;7.27;;
20956;SDS011;10637;47.970;7.830;2023-02-20T17:45:07;13.97;;;5.90;;
20956;SDS011;10637;47.970;7.830;2023-02-20T17:50:09;15.37;;;6.77;;
20956;SDS011;10637;47.970;7.830;2023-02-20T17:55:15;13.23;;;6.30;;
20956;SDS011;10637;47.970;7.830;2023-02-20T18:00:19;15.00;;;5.90;;
20956;SDS011;10637;47.970;7.830;2023-02-20T18:05:21;14.07;;;5.63;;
20956;SDS011;10637;47.970;7.830;2023-02-20T18:10:23;19.70;;;6.83;;
20956;SDS011;10637;47.970;7.830;2023-02-20T18:15:25;14.53;;;5.70;;
20956;SDS011;10637;47.970;7.830;2023-02-20T18:20:27;11.13;;;5.63;;
20956;SDS011;10637;47.970;7.830;2023-02-20T18:25:30;12.40;;;5.40;;
20956;SDS011;10637;47.970;7.830;2023-02-20T18:30:40;11.83;;;5.37;;
20956;SDS011;10637;47.970;7.830;2023-02-20T18:35:42;15.00;;;5.63;;
20956;SDS011;10637;47.970;7.830;2023-02-20T18:40:44;11.97;;;5.60;;
20956;SDS011;10637;47.970;7.830;2023-02-20T18:45:47;11.30;;;5.23;;
20956;SDS011;10637;47.970;7.830;2023-02-20T18:50:49;11.33;;;4.80;;
20956;SDS011;10637;47.970;7.830;2023-02-20T18:55:52;11.10;;;4.77;;
20956;SDS011;10637;47.970;7.830;2023-02-20T19:00:53;11.37;;;4.70;;
20956;SDS011;10637;47.970;7.830;2023-02-20T19:05:55;15.80;;;6.67;;
20956;SDS011;10637;47.970;7.830;2023-02-20T19:10:57;16.47;;;7.40;;
20956;SDS011;10637;47.970;7.830;2023-02-20T19:15:59;10.67;;;4.90;;
20956;SDS011;10637;47.970;7.830;2023-02-20T19:21:00;10.80;;;5.10;;
20956;SDS011;10637;47.970;7.830;2023-02-20T19:26:02;13.10;;;6.23;;
20956;SDS011;10637;47.970;7.830;2023-02-20T19:31:04;12.00;;;6.83;;
20956;SDS011;10637;47.970;7.830;2023-02-20T19:36:06;13.17;;;5.00;;
20956;SDS011;10637;47.970;7.830;2023-02-20T19:41:11;14.20;;;5.90;;
20956;SDS011;10637;47.970;7.830;2023-02-20T19:46:15;10.20;;;4.57;;
20956;SDS011;10637;47.970;7.830;2023-02-20T19:51:18;13.67;;;6.57;;
20956;SDS011;10637;47.970;7.830;2023-02-20T19:56:21;11.47;;;5.10;;
20956;SDS011;10637;47.970;7.830;2023-02-20T20:01:22;11.30;;;4.27;;
20956;SDS011;10637;47.970;7.830;2023-02-20T20:06:25;12.33;;;4.53;;
20956;SDS011;10637;47.970;7.830;2023-02-20T20:11:27;12.03;;;4.57;;
20956;SDS011;10637;47.970;7.830;2023-02-20T20:16:28;9.00;;;4.00;;
20956;SDS011;10637;47.970;7.830;2023-02-20T20:21:32;10.43;;;4.33;;
20956;SDS011;10637;47.970;7.830;2023-02-20T20:26:34;10.80;;;4.33;;
20956;SDS011;10637;47.970;7.830;2023-02-20T20:31:37;9.83;;;4.10;;
20956;SDS011;10637;47.970;7.830;2023-02-20T20:36:40;11.00;;;4.20;;
20956;SDS011;10637;47.970;7.830;2023-02-20T20:41:42;13.53;;;4.20;;
20956;SDS011;10637;47.970;7.830;2023-02-20T20:46:45;11.33;;;4.30;;
20956;SDS011;10637;47.970;7.830;2023-02-20T20:51:47;9.70;;;4.00;;
20956;SDS011;10637;47.970;7.830;2023-02-20T20:56:49;10.90;;;3.60;;
20956;SDS011;10637;47.970;7.830;2023-02-20T21:01:51;11.23;;;4.37;;
20956;SDS011;10637;47.970;7.830;2023-02-20T21:06:53;11.00;;;4.00;;
20956;SDS011;10637;47.970;7.830;2023-02-20T21:11:55;8.00;;;3.80;;
20956;SDS011;10637;47.970;7.830;2023-02-20T21:16:57;9.37;;;4.13;;
20956;SDS011;10637;47.970;7.830;2023-02-20T21:21:59;10.37;;;4.63;;
20956;SDS011;10637;47.970;7.830;2023-02-20T21:27:01;12.70;;;5.03;;
20956;SDS011;10637;47.970;7.830;2023-02-20T21:32:03;15.13;;;6.27;;
20956;SDS011;10637;47.970;7.830;2023-02-20T21:37:04;11.20;;;5.10;;
20956;SDS011;10637;47.970;7.830;2023-02-20T21:42:07;11.53;;;5.70;;
20956;SDS011;10637;47.970;7.830;2023-02-20T21:47:29;13.73;;;5.97;;
20956;SDS011;10637;47.970;7.830;2023-02-20T21:52:31;16.13;;;6.20;;
20956;SDS011;10637;47.970;7.830;2023-02-20T21:57:36;13.97;;;6.70;;
20956;SDS011;10637;47.970;7.830;2023-02-20T22:02:38;16.17;;;7.10;;
20956;SDS011;10637;47.970;7.830;2023-02-20T22:07:40;15.13;;;7.00;;
20956;SDS011;10637;47.970;7.830;2023-02-20T22:13:01;13.67;;;6.43;;
20956;SDS011;10637;47.970;7.830;2023-02-20T22:18:21;16.20;;;7.40;;
20956;SDS011;10637;47.970;7.830;2023-02-20T22:23:50;18.83;;;7.17;;
20956;SDS011;10637;47.970;7.830;2023-02-20T22:29:10;13.97;;;5.60;;
20956;SDS011;10637;47.970;7.830;2023-02-20T22:34:30;10.97;;;5.53;;
20956;SDS011;10637;47.970;7.830;2023-02-20T22:40:02;11.37;;;4.70;;
20956;SDS011;10637;47.970;7.830;2023-02-20T22:45:23;13.93;;;4.00;;
20956;SDS011;10637;47.970;7.830;2023-02-20T22:50:44;11.70;;;4.00;;
20956;SDS011;10637;47.970;7.830;2023-02-20T22:56:04;10.60;;;3.93;;
20956;SDS011;10637;47.970;7.830;2023-02-20T23:01:25;9.53;;;3.90;;
20956;SDS011;10637;47.970;7.830;2023-02-20T23:06:45;11.27;;;3.70;;
20956;SDS011;10637;47.970;7.830;2023-02-20T23:12:06;11.73;;;4.40;;
20956;SDS011;10637;47.970;7.830;2023-02-20T23:17:27;10.20;;;4.40;;
20956;SDS011;10637;47.970;7.830;2023-02-20T23:22:47;8.87;;;3.90;;
20956;SDS011;10637;47.970;7.830;2023-02-20T23:28:08;11.23;;;4.57;;
20956;SDS011;10637;47.970;7.830;2023-02-20T23:33:37;11.67;;;4.10;;
20956;SDS011;10637;47.970;7.830;2023-02-20T23:38:57;9.40;;;3.90;;
20956;SDS011;10637;47.970;7.830;2023-02-20T23:44:18;11.90;;;4.17;;
20956;SDS011;10637;47.970;7.830;2023-02-20T23:49:38;11.47;;;4.77;;
20956;SDS011;10637;47.970;7.830;2023-02-20T23:54:59;9.63;;;3.67;;
